VYAS weather

Anisakan Airport
Anisakan, Mandalay Division, Burma

Public forecast

Using degrees Celsius for public forecast. Weather courtesy of forecast.io.

METAR (pilot weather report)

Closest report is Mandalay International Airport, 28.3 nm (52.4 km) WSW. Retrieved 2019/09/16 01:30 UTC (0 seconds ago):

VYMD 160130Z 14003KT 7000 BKN020 FEW120 29/26 Q1008 NOSIG

TAF (pilot weather forecast)

Forecast is more than 12 hours old.

Closest forecast is Mandalay International Airport, 28.3 nm (52.4 km) WSW. Retrieved 2019/09/15 00:00 UTC (1 day ago):

TAF VYMD 152300Z 1600/1624 17007KT 7000 BKN020 FEW025CB TEMPO 1600/1606 04008KT 5000 -TSRA BKN018 FEW020CB BKN100